sensor_id;sensor_type;location;lat;lon;timestamp;pressure;altitude;pressure_sealevel;temperature;humidity
17873;BME280;36318;42.620;23.338;2023-02-10T00:02:16;94626.75;;;-7.28;100.00
17873;BME280;36318;42.620;23.338;2023-02-10T00:04:42;94613.25;;;-7.33;100.00
17873;BME280;36318;42.620;23.338;2023-02-10T00:07:10;94619.97;;;-7.32;100.00
17873;BME280;36318;42.620;23.338;2023-02-10T00:09:37;94626.69;;;-7.34;100.00
17873;BME280;36318;42.620;23.338;2023-02-10T00:12:03;94617.34;;;-7.42;100.00
17873;BME280;36318;42.620;23.338;2023-02-10T00:14:32;94624.13;;;-7.37;100.00
17873;BME280;36318;42.620;23.338;2023-02-10T00:16:59;94621.59;;;-7.35;100.00
17873;BME280;36318;42.620;23.338;2023-02-10T00:19:26;94621.50;;;-7.46;100.00
17873;BME280;36318;42.620;23.338;2023-02-10T00:21:53;94625.75;;;-7.42;100.00
17873;BME280;36318;42.620;23.338;2023-02-10T00:24:21;94618.97;;;-7.46;100.00
17873;BME280;36318;42.620;23.338;2023-02-10T00:26:48;94618.16;;;-7.46;100.00
17873;BME280;36318;42.620;23.338;2023-02-10T00:29:15;94616.44;;;-7.46;100.00
17873;BME280;36318;42.620;23.338;2023-02-10T00:31:41;94603.88;;;-7.43;100.00
17873;BME280;36318;42.620;23.338;2023-02-10T00:34:10;94601.34;;;-7.44;100.00
17873;BME280;36318;42.620;23.338;2023-02-10T00:36:37;94607.94;;;-7.54;100.00
17873;BME280;36318;42.620;23.338;2023-02-10T00:39:03;94598.72;;;-7.55;100.00
17873;BME280;36318;42.620;23.338;2023-02-10T00:41:31;94599.56;;;-7.54;100.00
17873;BME280;36318;42.620;23.338;2023-02-10T00:43:58;94596.97;;;-7.59;100.00
17873;BME280;36318;42.620;23.338;2023-02-10T00:46:24;94596.94;;;-7.62;100.00
17873;BME280;36318;42.620;23.338;2023-02-10T00:48:51;94599.53;;;-7.57;100.00
17873;BME280;36318;42.620;23.338;2023-02-10T00:51:18;94590.22;;;-7.63;100.00
17873;BME280;36318;42.620;23.338;2023-02-10T00:53:45;94589.38;;;-7.63;100.00
17873;BME280;36318;42.620;23.338;2023-02-10T00:56:13;94586.03;;;-7.62;100.00
17873;BME280;36318;42.620;23.338;2023-02-10T00:58:41;94581.81;;;-7.62;100.00
17873;BME280;36318;42.620;23.338;2023-02-10T01:01:08;94581.72;;;-7.69;100.00
17873;BME280;36318;42.620;23.338;2023-02-10T01:03:34;94575.91;;;-7.65;100.00
17873;BME280;36318;42.620;23.338;2023-02-10T01:06:01;94574.28;;;-7.59;100.00
17873;BME280;36318;42.620;23.338;2023-02-10T01:08:28;94580.97;;;-7.65;100.00
17873;BME280;36318;42.620;23.338;2023-02-10T01:10:58;94574.09;;;-7.75;100.00
17873;BME280;36318;42.620;23.338;2023-02-10T01:13:25;94571.69;;;-7.68;100.00
17873;BME280;36318;42.620;23.338;2023-02-10T01:15:53;94580.06;;;-7.69;100.00
17873;BME280;36318;42.620;23.338;2023-02-10T01:18:19;94569.94;;;-7.72;100.00
17873;BME280;36318;42.620;23.338;2023-02-10T01:20:46;94569.88;;;-7.78;100.00
17873;BME280;36318;42.620;23.338;2023-02-10T01:23:13;94568.19;;;-7.77;100.00
17873;BME280;36318;42.620;23.338;2023-02-10T01:25:40;94466.91;;;-8.27;100.00
17873;BME280;36318;42.620;23.338;2023-02-10T01:28:06;94560.59;;;-7.80;100.00
17873;BME280;36318;42.620;23.338;2023-02-10T01:30:33;94547.84;;;-7.96;100.00
17873;BME280;36318;42.620;23.338;2023-02-10T01:33:01;94558.72;;;-7.98;100.00
17873;BME280;36318;42.620;23.338;2023-02-10T01:35:28;94552.84;;;-7.97;100.00
17873;BME280;36318;42.620;23.338;2023-02-10T01:37:54;94546.94;;;-7.99;100.00
17873;BME280;36318;42.620;23.338;2023-02-10T01:40:21;94549.50;;;-7.96;100.00
17873;BME280;36318;42.620;23.338;2023-02-10T01:42:47;94552.91;;;-7.91;100.00
17873;BME280;36318;42.620;23.338;2023-02-10T01:45:16;94547.88;;;-7.91;100.00
17873;BME280;36318;42.620;23.338;2023-02-10T01:47:43;94542.84;;;-7.91;100.00
17873;BME280;36318;42.620;23.338;2023-02-10T01:50:13;94553.72;;;-7.95;100.00
17873;BME280;36318;42.620;23.338;2023-02-10T01:52:41;94545.22;;;-8.03;100.00
17873;BME280;36318;42.620;23.338;2023-02-10T01:55:09;94536.00;;;-8.01;100.00
17873;BME280;36318;42.620;23.338;2023-02-10T01:57:39;94531.78;;;-8.02;100.00
17873;BME280;36318;42.620;23.338;2023-02-10T02:00:08;94530.97;;;-8.01;100.00
17873;BME280;36318;42.620;23.338;2023-02-10T02:02:35;94529.44;;;-7.90;100.00
17873;BME280;36318;42.620;23.338;2023-02-10T02:05:04;94519.44;;;-7.84;100.00
17873;BME280;36318;42.620;23.338;2023-02-10T02:07:33;94517.78;;;-7.82;100.00
17873;BME280;36318;42.620;23.338;2023-02-10T02:10:01;94515.22;;;-7.83;100.00
17873;BME280;36318;42.620;23.338;2023-02-10T02:12:29;94511.09;;;-7.77;100.00
17873;BME280;36318;42.620;23.338;2023-02-10T02:15:02;94511.06;;;-7.81;100.00
17873;BME280;36318;42.620;23.338;2023-02-10T02:17:33;94509.28;;;-7.90;100.00
17873;BME280;36318;42.620;23.338;2023-02-10T02:20:26;94506.69;;;-7.95;100.00
17873;BME280;36318;42.620;23.338;2023-02-10T02:26:13;94502.53;;;-7.91;100.00
17873;BME280;36318;42.620;23.338;2023-02-10T02:28:47;94499.09;;;-8.01;100.00
17873;BME280;36318;42.620;23.338;2023-02-10T02:34:12;94505.63;;;-8.13;100.00
17873;BME280;36318;42.620;23.338;2023-02-10T02:36:40;94511.44;;;-8.19;100.00
17873;BME280;36318;42.620;23.338;2023-02-10T02:39:08;94508.84;;;-8.26;100.00
17873;BME280;36318;42.620;23.338;2023-02-10T02:41:34;94503.81;;;-8.28;100.00
17873;BME280;36318;42.620;23.338;2023-02-10T02:44:01;94508.00;;;-8.30;100.00
17873;BME280;36318;42.620;23.338;2023-02-10T02:46:32;94496.25;;;-8.26;100.00
17873;BME280;36318;42.620;23.338;2023-02-10T02:49:01;94498.81;;;-8.23;100.00
17873;BME280;36318;42.620;23.338;2023-02-10T02:51:34;94499.66;;;-8.21;100.00
17873;BME280;36318;42.620;23.338;2023-02-10T02:54:08;94498.94;;;-8.13;100.00
17873;BME280;36318;42.620;23.338;2023-02-10T02:56:39;94502.31;;;-8.12;100.00
17873;BME280;36318;42.620;23.338;2023-02-10T02:59:10;94509.00;;;-8.13;100.00
17873;BME280;36318;42.620;23.338;2023-02-10T03:01:41;94495.50;;;-8.19;100.00
17873;BME280;36318;42.620;23.338;2023-02-10T03:04:09;94496.28;;;-8.25;100.00
17873;BME280;36318;42.620;23.338;2023-02-10T03:06:39;94498.81;;;-8.23;100.00
17873;BME280;36318;42.620;23.338;2023-02-10T03:09:06;94486.25;;;-8.20;100.00
17873;BME280;36318;42.620;23.338;2023-02-10T03:11:33;94485.44;;;-8.19;100.00
17873;BME280;36318;42.620;23.338;2023-02-10T03:13:59;94495.50;;;-8.19;100.00
17873;BME280;36318;42.620;23.338;2023-02-10T03:16:26;94493.75;;;-8.25;100.00
17873;BME280;36318;42.620;23.338;2023-02-10T03:18:53;94487.88;;;-8.27;100.00
17873;BME280;36318;42.620;23.338;2023-02-10T03:21:19;94496.22;;;-8.31;100.00
17873;BME280;36318;42.620;23.338;2023-02-10T03:23:47;94504.59;;;-8.33;100.00
17873;BME280;36318;42.620;23.338;2023-02-10T03:26:14;94512.88;;;-8.40;100.00
17873;BME280;36318;42.620;23.338;2023-02-10T03:28:40;94515.28;;;-8.48;100.00
17873;BME280;36318;42.620;23.338;2023-02-10T03:31:07;94506.81;;;-8.55;100.00
17873;BME280;36318;42.620;23.338;2023-02-10T03:33:34;94503.41;;;-8.60;100.00
17873;BME280;36318;42.620;23.338;2023-02-10T03:36:01;94504.19;;;-8.64;100.00
17873;BME280;36318;42.620;23.338;2023-02-10T03:38:28;94503.31;;;-8.64;100.00
17873;BME280;36318;42.620;23.338;2023-02-10T03:40:56;94502.47;;;-8.65;100.00
17873;BME280;36318;42.620;23.338;2023-02-10T03:43:22;94492.41;;;-8.68;100.00
17873;BME280;36318;42.620;23.338;2023-02-10T03:45:49;94494.09;;;-8.65;100.00
17873;BME280;36318;42.620;23.338;2023-02-10T03:48:15;94481.50;;;-8.67;100.00
17873;BME280;36318;42.620;23.338;2023-02-10T03:50:42;94488.22;;;-8.64;100.00
17873;BME280;36318;42.620;23.338;2023-02-10T03:53:09;94483.28;;;-8.60;100.00
17873;BME280;36318;42.620;23.338;2023-02-10T03:55:35;94479.97;;;-8.54;100.00
17873;BME280;36318;42.620;23.338;2023-02-10T03:58:03;94480.78;;;-8.58;100.00
17873;BME280;36318;42.620;23.338;2023-02-10T04:00:30;94478.16;;;-8.66;100.00
17873;BME280;36318;42.620;23.338;2023-02-10T04:02:57;94486.47;;;-8.70;100.00
17873;BME280;36318;42.620;23.338;2023-02-10T04:05:24;94487.28;;;-8.72;100.00
17873;BME280;36318;42.620;23.338;2023-02-10T04:07:50;94480.50;;;-8.78;100.00
17873;BME280;36318;42.620;23.338;2023-02-10T04:10:17;94477.91;;;-8.82;100.00
17873;BME280;36318;42.620;23.338;2023-02-10T04:12:45;94474.59;;;-8.80;100.00
17873;BME280;36318;42.620;23.338;2023-02-10T04:15:13;94475.44;;;-8.79;100.00
17873;BME280;36318;42.620;23.338;2023-02-10T04:17:40;94476.31;;;-8.79;100.00
17873;BME280;36318;42.620;23.338;2023-02-10T04:20:07;94482.91;;;-8.87;100.00
17873;BME280;36318;42.620;23.338;2023-02-10T04:22:33;94481.16;;;-8.91;100.00
17873;BME280;36318;42.620;23.338;2023-02-10T04:25:00;94474.41;;;-8.92;100.00
17873;BME280;36318;42.620;23.338;2023-02-10T04:27:27;94474.47;;;-8.89;100.00
17873;BME280;36318;42.620;23.338;2023-02-10T04:29:53;94478.66;;;-8.89;100.00
17873;BME280;36318;42.620;23.338;2023-02-10T04:32:22;94389.88;;;-9.42;100.00
17873;BME280;36318;42.620;23.338;2023-02-10T04:34:48;94472.06;;;-8.81;100.00
17873;BME280;36318;42.620;23.338;2023-02-10T04:37:15;94475.47;;;-8.78;100.00
17873;BME280;36318;42.620;23.338;2023-02-10T04:39:42;94476.31;;;-8.77;100.00
17873;BME280;36318;42.620;23.338;2023-02-10T04:42:08;94482.97;;;-8.81;100.00
17873;BME280;36318;42.620;23.338;2023-02-10T04:44:35;94481.16;;;-8.91;100.00
17873;BME280;36318;42.620;23.338;2023-02-10T04:47:02;94486.13;;;-8.94;100.00
17873;BME280;36318;42.620;23.338;2023-02-10T04:49:30;94484.41;;;-8.98;100.00
17873;BME280;36318;42.620;23.338;2023-02-10T04:51:56;94494.38;;;-9.04;100.00
17873;BME280;36318;42.620;23.338;2023-02-10T04:54:23;94485.13;;;-9.05;100.00
17873;BME280;36318;42.620;23.338;2023-02-10T04:56:49;94485.06;;;-9.09;100.00
17873;BME280;36318;42.620;23.338;2023-02-10T04:59:16;94484.19;;;-9.12;100.00
17873;BME280;36318;42.620;23.338;2023-02-10T05:01:42;94479.13;;;-9.13;100.00
17873;BME280;36318;42.620;23.338;2023-02-10T05:04:09;94477.50;;;-9.11;100.00
17873;BME280;36318;42.620;23.338;2023-02-10T05:06:37;94478.22;;;-9.18;100.00
17873;BME280;36318;42.620;23.338;2023-02-10T05:09:04;94488.22;;;-9.23;100.00
17873;BME280;36318;42.620;23.338;2023-02-10T05:11:30;94492.31;;;-9.26;100.00
17873;BME280;36318;42.620;23.338;2023-02-10T05:13:57;94492.28;;;-9.29;100.00
17873;BME280;36318;42.620;23.338;2023-02-10T05:16:24;94497.63;;;-9.11;100.00
17873;BME280;36318;42.620;23.338;2023-02-10T05:18:53;94498.38;;;-9.14;100.00
17873;BME280;36318;42.620;23.338;2023-02-10T05:21:20;94416.28;;;-9.68;100.00
17873;BME280;36318;42.620;23.338;2023-02-10T05:23:48;94506.72;;;-9.18;100.00
17873;BME280;36318;42.620;23.338;2023-02-10T05:26:15;94515.16;;;-9.14;100.00
17873;BME280;36318;42.620;23.338;2023-02-10T05:28:41;94515.97;;;-9.15;100.00
17873;BME280;36318;42.620;23.338;2023-02-10T05:31:08;94520.94;;;-9.20;100.00
17873;BME280;36318;42.620;23.338;2023-02-10T05:33:34;94522.59;;;-9.20;100.00
17873;BME280;36318;42.620;23.338;2023-02-10T05:36:01;94528.44;;;-9.21;100.00
17873;BME280;36318;42.620;23.338;2023-02-10T05:38:28;94525.13;;;-9.19;100.00
17873;BME280;36318;42.620;23.338;2023-02-10T05:40:56;94536.13;;;-9.12;100.00
17873;BME280;36318;42.620;23.338;2023-02-10T05:43:22;94536.97;;;-9.12;100.00
17873;BME280;36318;42.620;23.338;2023-02-10T05:45:49;94542.94;;;-9.05;100.00
17873;BME280;36318;42.620;23.338;2023-02-10T05:48:15;94547.16;;;-9.02;100.00
17873;BME280;36318;42.620;23.338;2023-02-10T05:50:42;94543.84;;;-9.01;100.00
17873;BME280;36318;42.620;23.338;2023-02-10T05:53:09;94543.91;;;-8.97;100.00
17873;BME280;36318;42.620;23.338;2023-02-10T05:55:36;94549.94;;;-8.87;100.00
17873;BME280;36318;42.620;23.338;2023-02-10T05:58:04;94545.00;;;-8.81;100.00
17873;BME280;36318;42.620;23.338;2023-02-10T06:00:30;94549.31;;;-8.74;100.00
17873;BME280;36318;42.620;23.338;2023-02-10T06:02:57;94543.31;;;-8.21;100.00
17873;BME280;36318;42.620;23.338;2023-02-10T06:05:23;94534.28;;;-7.29;100.00
17873;BME280;36318;42.620;23.338;2023-02-10T06:07:50;94544.69;;;-6.95;100.00
17873;BME280;36318;42.620;23.338;2023-02-10T06:10:16;94550.06;;;-6.54;100.00
17873;BME280;36318;42.620;23.338;2023-02-10T06:12:43;94558.72;;;-6.15;100.00
17873;BME280;36318;42.620;23.338;2023-02-10T06:15:11;94559.72;;;-5.79;100.00
17873;BME280;36318;42.620;23.338;2023-02-10T06:17:37;94553.97;;;-5.34;100.00
17873;BME280;36318;42.620;23.338;2023-02-10T06:20:05;94563.38;;;-4.77;100.00
17873;BME280;36318;42.620;23.338;2023-02-10T06:22:31;94566.72;;;-4.27;100.00
17873;BME280;36318;42.620;23.338;2023-02-10T06:24:58;94569.97;;;-3.65;100.00
17873;BME280;36318;42.620;23.338;2023-02-10T06:27:25;94562.50;;;-2.38;100.00
17873;BME280;36318;42.620;23.338;2023-02-10T06:29:51;94564.94;;;-0.77;86.22
17873;BME280;36318;42.620;23.338;2023-02-10T06:32:19;94568.31;;;0.30;74.57
17873;BME280;36318;42.620;23.338;2023-02-10T06:34:48;94568.06;;;1.28;67.36
17873;BME280;36318;42.620;23.338;2023-02-10T06:37:15;94555.72;;;2.17;63.90
17873;BME280;36318;42.620;23.338;2023-02-10T06:39:41;94551.09;;;1.98;63.26
17873;BME280;36318;42.620;23.338;2023-02-10T06:42:08;94554.50;;;2.64;62.70
17873;BME280;36318;42.620;23.338;2023-02-10T06:44:34;94560.28;;;3.32;61.82
17873;BME280;36318;42.620;23.338;2023-02-10T06:47:01;94553.91;;;3.72;61.49
17873;BME280;36318;42.620;23.338;2023-02-10T06:49:29;94559.09;;;4.24;59.53
17873;BME280;36318;42.620;23.338;2023-02-10T06:51:55;94558.06;;;4.30;58.02
17873;BME280;36318;42.620;23.338;2023-02-10T06:54:22;94563.25;;;4.02;55.12
17873;BME280;36318;42.620;23.338;2023-02-10T06:56:49;94567.41;;;4.57;53.30
17873;BME280;36318;42.620;23.338;2023-02-10T06:59:15;94568.94;;;5.10;52.33
17873;BME280;36318;42.620;23.338;2023-02-10T07:01:42;94578.91;;;5.42;50.90
17873;BME280;36318;42.620;23.338;2023-02-10T07:04:09;94566.84;;;5.21;50.55
17873;BME280;36318;42.620;23.338;2023-02-10T07:06:36;94557.13;;;5.96;48.80
17873;BME280;36318;42.620;23.338;2023-02-10T07:09:03;94562.47;;;5.91;48.96
17873;BME280;36318;42.620;23.338;2023-02-10T07:11:30;94557.91;;;6.40;47.64
17873;BME280;36318;42.620;23.338;2023-02-10T07:13:56;94555.06;;;5.82;47.47
17873;BME280;36318;42.620;23.338;2023-02-10T07:16:23;94551.72;;;6.24;47.04
17873;BME280;36318;42.620;23.338;2023-02-10T07:18:50;94549.03;;;6.47;46.59
17873;BME280;36318;42.620;23.338;2023-02-10T07:21:16;94544.13;;;6.81;45.74
17873;BME280;36318;42.620;23.338;2023-02-10T07:23:44;94542.38;;;7.20;45.19
17873;BME280;36318;42.620;23.338;2023-02-10T07:26:11;94536.97;;;7.64;44.47
17873;BME280;36318;42.620;23.338;2023-02-10T07:28:37;94542.75;;;7.69;44.10
17873;BME280;36318;42.620;23.338;2023-02-10T07:31:04;94550.69;;;8.02;44.03
17873;BME280;36318;42.620;23.338;2023-02-10T07:33:31;94541.94;;;8.04;43.97
17873;BME280;36318;42.620;23.338;2023-02-10T07:35:58;94536.56;;;8.45;43.37
17873;BME280;36318;42.620;23.338;2023-02-10T07:38:25;94544.63;;;7.84;43.74
17873;BME280;36318;42.620;23.338;2023-02-10T07:40:53;94533.78;;;8.30;43.19
17873;BME280;36318;42.620;23.338;2023-02-10T07:43:20;94537.63;;;8.58;43.21
17873;BME280;36318;42.620;23.338;2023-02-10T07:45:47;94530.59;;;8.77;42.36
17873;BME280;36318;42.620;23.338;2023-02-10T07:48:15;94535.25;;;8.36;42.80
17873;BME280;36318;42.620;23.338;2023-02-10T07:50:42;94536.81;;;9.07;41.85
17873;BME280;36318;42.620;23.338;2023-02-10T07:53:09;94526.88;;;9.63;41.22
17873;BME280;36318;42.620;23.338;2023-02-10T07:55:36;94533.53;;;9.36;41.11
17873;BME280;36318;42.620;23.338;2023-02-10T07:58:04;94545.78;;;9.17;41.01
17873;BME280;36318;42.620;23.338;2023-02-10T08:00:30;94543.13;;;9.67;40.51
17873;BME280;36318;42.620;23.338;2023-02-10T08:02:57;94546.06;;;10.69;40.39
17873;BME280;36318;42.620;23.338;2023-02-10T08:05:23;94536.72;;;10.51;39.19
17873;BME280;36318;42.620;23.338;2023-02-10T08:07:51;94546.63;;;10.74;39.58
17873;BME280;36318;42.620;23.338;2023-02-10T08:10:18;94544.25;;;10.55;39.44
17873;BME280;36318;42.620;23.338;2023-02-10T08:12:44;94536.19;;;11.04;38.46
17873;BME280;36318;42.620;23.338;2023-02-10T08:15:13;94538.09;;;9.95;38.88
17873;BME280;36318;42.620;23.338;2023-02-10T08:17:42;94539.94;;;11.00;38.40
17873;BME280;36318;42.620;23.338;2023-02-10T08:20:08;94522.84;;;10.96;37.80
17873;BME280;36318;42.620;23.338;2023-02-10T08:22:35;94525.66;;;11.21;38.54
17873;BME280;36318;42.620;23.338;2023-02-10T08:25:02;94525.28;;;11.69;37.28
17873;BME280;36318;42.620;23.338;2023-02-10T08:27:29;94531.75;;;12.05;37.03
17873;BME280;36318;42.620;23.338;2023-02-10T08:29:55;94530.13;;;12.43;36.45
17873;BME280;36318;42.620;23.338;2023-02-10T08:32:23;94526.66;;;11.61;36.43
17873;BME280;36318;42.620;23.338;2023-02-10T08:34:50;94533.34;;;11.93;36.88
17873;BME280;36318;42.620;23.338;2023-02-10T08:37:17;94534.47;;;12.69;36.05
17873;BME280;36318;42.620;23.338;2023-02-10T08:39:44;94530.31;;;12.67;35.36
17873;BME280;36318;42.620;23.338;2023-02-10T08:42:10;94523.97;;;13.35;34.77
17873;BME280;36318;42.620;23.338;2023-02-10T08:44:37;94519.63;;;13.72;34.29
17873;BME280;36318;42.620;23.338;2023-02-10T08:47:04;94521.16;;;13.87;34.06
17873;BME280;36318;42.620;23.338;2023-02-10T08:49:32;94523.34;;;14.29;34.03
17873;BME280;36318;42.620;23.338;2023-02-10T08:51:58;94523.38;;;14.53;33.61
17873;BME280;36318;42.620;23.338;2023-02-10T08:54:25;94516.94;;;14.10;33.48
17873;BME280;36318;42.620;23.338;2023-02-10T08:56:52;94523.88;;;14.58;33.71
17873;BME280;36318;42.620;23.338;2023-02-10T08:59:19;94517.66;;;15.18;33.13
17873;BME280;36318;42.620;23.338;2023-02-10T09:01:46;94515.47;;;14.89;33.05
17873;BME280;36318;42.620;23.338;2023-02-10T09:04:12;94517.31;;;14.53;33.00
17873;BME280;36318;42.620;23.338;2023-02-10T09:06:40;94522.56;;;13.67;32.75
17873;BME280;36318;42.620;23.338;2023-02-10T09:09:08;94522.31;;;12.82;34.16
17873;BME280;36318;42.620;23.338;2023-02-10T09:11:35;94511.22;;;14.28;33.48
17873;BME280;36318;42.620;23.338;2023-02-10T09:14:02;94503.84;;;15.05;32.88
17873;BME280;36318;42.620;23.338;2023-02-10T09:16:29;94501.75;;;16.21;31.45
17873;BME280;36318;42.620;23.338;2023-02-10T09:18:55;94503.69;;;16.50;31.28
17873;BME280;36318;42.620;23.338;2023-02-10T09:21:22;94497.28;;;15.56;31.72
17873;BME280;36318;42.620;23.338;2023-02-10T09:23:51;94498.22;;;16.10;31.66
17873;BME280;36318;42.620;23.338;2023-02-10T09:26:18;94495.28;;;16.79;31.21
17873;BME280;36318;42.620;23.338;2023-02-10T09:28:44;94498.72;;;15.03;31.02
17873;BME280;36318;42.620;23.338;2023-02-10T09:31:11;94498.06;;;16.66;30.66
17873;BME280;36318;42.620;23.338;2023-02-10T09:33:39;94493.34;;;17.54;29.79
17873;BME280;36318;42.620;23.338;2023-02-10T09:36:06;94491.09;;;17.79;29.65
17873;BME280;36318;42.620;23.338;2023-02-10T09:38:32;94490.59;;;17.44;30.10
17873;BME280;36318;42.620;23.338;2023-02-10T09:41:04;94480.13;;;18.05;29.74
17873;BME280;36318;42.620;23.338;2023-02-10T09:43:47;94481.31;;;18.40;29.20
17873;BME280;36318;42.620;23.338;2023-02-10T09:46:20;94482.00;;;18.42;29.12
17873;BME280;36318;42.620;23.338;2023-02-10T09:48:55;94487.28;;;14.93;29.98
17873;BME280;36318;42.620;23.338;2023-02-10T09:51:30;94490.41;;;16.31;30.53
17873;BME280;36318;42.620;23.338;2023-02-10T09:53:59;94487.63;;;16.55;30.35
17873;BME280;36318;42.620;23.338;2023-02-10T09:56:28;94487.53;;;16.77;29.78
17873;BME280;36318;42.620;23.338;2023-02-10T09:58:56;94478.56;;;17.42;29.76
17873;BME280;36318;42.620;23.338;2023-02-10T10:01:24;94465.78;;;18.18;29.05
17873;BME280;36318;42.620;23.338;2023-02-10T10:03:53;94474.13;;;18.42;28.68
17873;BME280;36318;42.620;23.338;2023-02-10T10:06:22;94461.00;;;19.09;28.42
17873;BME280;36318;42.620;23.338;2023-02-10T10:09:04;94464.75;;;18.49;27.90
17873;BME280;36318;42.620;23.338;2023-02-10T10:11:41;94456.03;;;18.49;28.48
17873;BME280;36318;42.620;23.338;2023-02-10T10:14:13;94447.84;;;18.90;28.35
17873;BME280;36318;42.620;23.338;2023-02-10T10:17:00;94466.41;;;15.04;30.00
17873;BME280;36318;42.620;23.338;2023-02-10T10:19:32;94453.78;;;17.04;29.36
17873;BME280;36318;42.620;23.338;2023-02-10T10:22:11;94442.84;;;17.80;28.52
17873;BME280;36318;42.620;23.338;2023-02-10T10:24:52;94439.03;;;18.04;28.99
17873;BME280;36318;42.620;23.338;2023-02-10T10:27:28;94445.09;;;18.63;28.11
17873;BME280;36318;42.620;23.338;2023-02-10T10:29:59;94438.28;;;18.32;27.58
17873;BME280;36318;42.620;23.338;2023-02-10T10:32:32;94442.44;;;15.54;29.68
17873;BME280;36318;42.620;23.338;2023-02-10T10:35:02;94443.03;;;16.87;29.05
17873;BME280;36318;42.620;23.338;2023-02-10T10:37:30;94436.84;;;16.24;29.76
17873;BME280;36318;42.620;23.338;2023-02-10T10:39:57;94438.38;;;15.84;29.72
17873;BME280;36318;42.620;23.338;2023-02-10T10:42:27;94435.41;;;15.66;30.06
17873;BME280;36318;42.620;23.338;2023-02-10T10:45:03;94437.81;;;14.44;30.71
17873;BME280;36318;42.620;23.338;2023-02-10T10:47:36;94439.78;;;14.29;31.42
17873;BME280;36318;42.620;23.338;2023-02-10T10:50:05;94440.56;;;13.59;32.10
17873;BME280;36318;42.620;23.338;2023-02-10T10:52:32;94444.75;;;12.60;32.67
17873;BME280;36318;42.620;23.338;2023-02-10T10:55:01;94453.22;;;11.98;33.52
17873;BME280;36318;42.620;23.338;2023-02-10T10:57:30;94448.19;;;9.33;35.79
17873;BME280;36318;42.620;23.338;2023-02-10T10:59:58;94449.13;;;9.48;37.11
17873;BME280;36318;42.620;23.338;2023-02-10T11:02:25;94447.28;;;9.81;37.15
17873;BME280;36318;42.620;23.338;2023-02-10T11:05:02;94439.91;;;9.74;37.58
17873;BME280;36318;42.620;23.338;2023-02-10T11:07:28;94438.78;;;9.32;37.97
17873;BME280;36318;42.620;23.338;2023-02-10T11:09:57;94433.81;;;8.47;38.43
17873;BME280;36318;42.620;23.338;2023-02-10T11:12:27;94433.00;;;8.46;39.45
17873;BME280;36318;42.620;23.338;2023-02-10T11:14:55;94435.78;;;8.59;39.51
17873;BME280;36318;42.620;23.338;2023-02-10T11:17:23;94434.50;;;8.50;39.84
17873;BME280;36318;42.620;23.338;2023-02-10T11:19:55;94436.88;;;8.37;39.69
17873;BME280;36318;42.620;23.338;2023-02-10T11:22:22;94431.69;;;8.20;39.63
17873;BME280;36318;42.620;23.338;2023-02-10T11:24:49;94431.00;;;8.00;41.21
17873;BME280;36318;42.620;23.338;2023-02-10T11:27:16;94433.13;;;6.62;40.48
17873;BME280;36318;42.620;23.338;2023-02-10T11:29:45;94426.78;;;6.51;42.09
17873;BME280;36318;42.620;23.338;2023-02-10T11:32:17;94428.09;;;6.00;42.14
17873;BME280;36318;42.620;23.338;2023-02-10T11:34:45;94422.28;;;5.54;42.86
17873;BME280;36318;42.620;23.338;2023-02-10T11:37:18;94421.38;;;6.17;44.60
17873;BME280;36318;42.620;23.338;2023-02-10T11:39:46;94422.03;;;6.42;43.82
17873;BME280;36318;42.620;23.338;2023-02-10T11:42:16;94425.88;;;5.50;42.49
17873;BME280;36318;42.620;23.338;2023-02-10T11:44:51;94436.25;;;4.34;46.01
17873;BME280;36318;42.620;23.338;2023-02-10T11:47:20;94426.88;;;5.02;45.53
17873;BME280;36318;42.620;23.338;2023-02-10T11:49:47;94419.28;;;5.64;44.78
17873;BME280;36318;42.620;23.338;2023-02-10T11:52:15;94429.59;;;4.03;46.42
17873;BME280;36318;42.620;23.338;2023-02-10T11:54:42;94421.66;;;3.60;48.31
17873;BME280;36318;42.620;23.338;2023-02-10T11:57:16;94424.16;;;4.37;47.21
17873;BME280;36318;42.620;23.338;2023-02-10T12:00:03;94420.06;;;4.55;47.38
17873;BME280;36318;42.620;23.338;2023-02-10T12:02:42;94418.16;;;4.60;47.01
17873;BME280;36318;42.620;23.338;2023-02-10T12:05:17;94411.56;;;5.21;46.36
17873;BME280;36318;42.620;23.338;2023-02-10T12:07:57;94412.03;;;5.30;45.35
17873;BME280;36318;42.620;23.338;2023-02-10T12:10:28;94402.22;;;5.40;45.43
17873;BME280;36318;42.620;23.338;2023-02-10T12:12:58;94310.91;;;4.85;45.57
17873;BME280;36318;42.620;23.338;2023-02-10T12:15:28;94401.69;;;5.54;45.98
17873;BME280;36318;42.620;23.338;2023-02-10T12:18:05;94398.84;;;5.60;45.26
17873;BME280;36318;42.620;23.338;2023-02-10T12:20:38;94388.03;;;5.93;46.08
17873;BME280;36318;42.620;23.338;2023-02-10T12:23:14;94382.41;;;5.84;44.81
17873;BME280;36318;42.620;23.338;2023-02-10T12:25:46;94385.25;;;5.98;44.91
17873;BME280;36318;42.620;23.338;2023-02-10T12:28:19;94387.50;;;6.26;45.44
17873;BME280;36318;42.620;23.338;2023-02-10T12:30:51;94385.41;;;6.34;44.27
17873;BME280;36318;42.620;23.338;2023-02-10T12:33:28;94385.63;;;6.29;45.80
17873;BME280;36318;42.620;23.338;2023-02-10T12:35:58;94381.47;;;6.45;45.62
17873;BME280;36318;42.620;23.338;2023-02-10T12:38:35;94383.06;;;6.29;44.89
17873;BME280;36318;42.620;23.338;2023-02-10T12:41:09;94383.13;;;6.46;45.42
17873;BME280;36318;42.620;23.338;2023-02-10T12:43:45;94377.06;;;6.29;45.70
17873;BME280;36318;42.620;23.338;2023-02-10T12:46:17;94374.09;;;6.56;44.10
17873;BME280;36318;42.620;23.338;2023-02-10T12:48:54;94366.50;;;6.53;43.13
17873;BME280;36318;42.620;23.338;2023-02-10T12:51:28;94371.19;;;6.64;43.42
17873;BME280;36318;42.620;23.338;2023-02-10T12:54:00;94378.91;;;6.64;43.50
17873;BME280;36318;42.620;23.338;2023-02-10T12:56:29;94375.72;;;6.59;43.17
17873;BME280;36318;42.620;23.338;2023-02-10T12:59:00;94372.00;;;6.46;43.71
17873;BME280;36318;42.620;23.338;2023-02-10T13:01:29;94377.38;;;6.01;44.63